sensor_id;sensor_type;location;lat;lon;timestamp;pressure;altitude;pressure_sealevel;temperature;humidity
48624;BME280;34422;45.802;16.114;2023-05-28T00:00:48;65490.91;;;15.99;77.61
48624;BME280;34422;45.802;16.114;2023-05-28T00:03:15;65495.25;;;16.04;76.51
48624;BME280;34422;45.802;16.114;2023-05-28T00:05:45;65507.69;;;16.13;75.26
48624;BME280;34422;45.802;16.114;2023-05-28T00:08:12;65517.97;;;16.20;74.58
48624;BME280;34422;45.802;16.114;2023-05-28T00:10:41;65514.72;;;16.22;74.45
48624;BME280;34422;45.802;16.114;2023-05-28T00:13:08;65521.75;;;16.23;74.40
48624;BME280;34422;45.802;16.114;2023-05-28T00:15:35;65516.88;;;16.19;74.73
48624;BME280;34422;45.802;16.114;2023-05-28T00:18:04;65509.84;;;16.15;76.28
48624;BME280;34422;45.802;16.114;2023-05-28T00:20:31;65502.28;;;16.08;76.12
48624;BME280;34422;45.802;16.114;2023-05-28T00:22:58;65503.38;;;16.04;75.96
48624;BME280;34422;45.802;16.114;2023-05-28T00:25:24;65492.56;;;15.98;77.59
48624;BME280;34422;45.802;16.114;2023-05-28T00:27:51;65493.09;;;15.96;77.83
48624;BME280;34422;45.802;16.114;2023-05-28T00:30:18;65477.41;;;15.89;80.00
48624;BME280;34422;45.802;16.114;2023-05-28T00:32:45;65484.44;;;15.91;81.82
48624;BME280;34422;45.802;16.114;2023-05-28T00:35:11;65482.28;;;15.86;80.77
48624;BME280;34422;45.802;16.114;2023-05-28T00:37:38;65477.41;;;15.82;80.77
48624;BME280;34422;45.802;16.114;2023-05-28T00:40:06;65474.16;;;15.81;81.69
48624;BME280;34422;45.802;16.114;2023-05-28T00:42:33;65475.78;;;15.80;81.47
48624;BME280;34422;45.802;16.114;2023-05-28T00:45:00;65476.88;;;15.84;82.00
48624;BME280;34422;45.802;16.114;2023-05-28T00:47:26;65486.06;;;15.95;78.79
48624;BME280;34422;45.802;16.114;2023-05-28T00:49:53;65497.41;;;16.06;76.10
48624;BME280;34422;45.802;16.114;2023-05-28T00:52:22;65515.81;;;16.18;76.59
48624;BME280;34422;45.802;16.114;2023-05-28T00:54:49;65527.69;;;16.29;77.06
48624;BME280;34422;45.802;16.114;2023-05-28T00:57:16;65525.00;;;16.24;81.23
48624;BME280;34422;45.802;16.114;2023-05-28T00:59:47;65514.72;;;16.17;81.80
48624;BME280;34422;45.802;16.114;2023-05-28T01:02:14;65500.13;;;16.00;87.56
48624;BME280;34422;45.802;16.114;2023-05-28T01:04:42;65476.88;;;15.81;90.17
48624;BME280;34422;45.802;16.114;2023-05-28T01:07:09;65435.22;;;15.42;92.69
48624;BME280;34422;45.802;16.114;2023-05-28T01:09:36;65414.13;;;15.22;95.36
48624;BME280;34422;45.802;16.114;2023-05-28T01:12:05;65402.25;;;15.11;98.71
48624;BME280;34422;45.802;16.114;2023-05-28T01:14:34;65380.09;;;14.90;100.00
48624;BME280;34422;45.802;16.114;2023-05-28T01:17:04;65384.94;;;14.95;100.00
48624;BME280;34422;45.802;16.114;2023-05-28T01:19:32;65386.59;;;14.99;100.00
48624;BME280;34422;45.802;16.114;2023-05-28T01:22:03;65394.66;;;15.04;100.00
48624;BME280;34422;45.802;16.114;2023-05-28T01:24:32;65399.53;;;15.06;100.00
48624;BME280;34422;45.802;16.114;2023-05-28T01:27:01;65394.66;;;15.04;100.00
48624;BME280;34422;45.802;16.114;2023-05-28T01:29:28;65387.66;;;14.98;100.00
48624;BME280;34422;45.802;16.114;2023-05-28T01:31:56;65384.97;;;15.00;100.00
48624;BME280;34422;45.802;16.114;2023-05-28T01:34:23;65390.91;;;14.98;100.00
48624;BME280;34422;45.802;16.114;2023-05-28T01:37:03;65384.97;;;15.00;100.00
48624;BME280;34422;45.802;16.114;2023-05-28T01:39:38;65385.50;;;15.01;100.00
48624;BME280;34422;45.802;16.114;2023-05-28T01:42:07;65389.28;;;15.02;100.00
48624;BME280;34422;45.802;16.114;2023-05-28T01:44:35;65394.13;;;15.06;100.00
48624;BME280;34422;45.802;16.114;2023-05-28T01:47:02;65404.94;;;15.09;100.00
48624;BME280;34422;45.802;16.114;2023-05-28T01:49:29;65394.13;;;15.09;100.00
48624;BME280;34422;45.802;16.114;2023-05-28T01:51:56;65396.31;;;15.08;100.00
48624;BME280;34422;45.802;16.114;2023-05-28T01:54:23;65395.22;;;15.05;100.00
48624;BME280;34422;45.802;16.114;2023-05-28T01:56:50;65402.78;;;15.12;100.00
48624;BME280;34422;45.802;16.114;2023-05-28T01:59:17;65408.19;;;15.17;100.00
48624;BME280;34422;45.802;16.114;2023-05-28T02:01:44;65414.13;;;15.22;99.64
48624;BME280;34422;45.802;16.114;2023-05-28T02:04:10;65408.19;;;15.22;100.00
48624;BME280;34422;45.802;16.114;2023-05-28T02:06:37;65417.38;;;15.28;99.84
48624;BME280;34422;45.802;16.114;2023-05-28T02:09:07;65420.63;;;15.31;98.85
48624;BME280;34422;45.802;16.114;2023-05-28T02:11:33;65424.94;;;15.33;100.00
48624;BME280;34422;45.802;16.114;2023-05-28T02:14:00;65423.84;;;15.32;100.00
48624;BME280;34422;45.802;16.114;2023-05-28T02:16:28;65423.84;;;15.32;100.00
48624;BME280;34422;45.802;16.114;2023-05-28T02:18:55;65417.38;;;15.25;100.00
48624;BME280;34422;45.802;16.114;2023-05-28T02:21:22;65417.38;;;15.25;100.00
48624;BME280;34422;45.802;16.114;2023-05-28T02:23:49;65419.00;;;15.29;100.00
48624;BME280;34422;45.802;16.114;2023-05-28T02:26:17;65420.63;;;15.28;100.00
48624;BME280;34422;45.802;16.114;2023-05-28T02:28:44;65414.16;;;15.27;100.00
48624;BME280;34422;45.802;16.114;2023-05-28T02:31:12;65422.78;;;15.25;100.00
48624;BME280;34422;45.802;16.114;2023-05-28T02:33:40;65409.28;;;15.20;100.00
48624;BME280;34422;45.802;16.114;2023-05-28T02:36:09;65400.63;;;15.15;100.00
48624;BME280;34422;45.802;16.114;2023-05-28T02:38:39;65399.53;;;15.11;100.00
48624;BME280;34422;45.802;16.114;2023-05-28T02:41:06;65399.53;;;15.09;100.00
48624;BME280;34422;45.802;16.114;2023-05-28T02:43:33;65387.13;;;15.02;100.00
48624;BME280;34422;45.802;16.114;2023-05-28T02:46:00;65390.91;;;14.98;100.00
48624;BME280;34422;45.802;16.114;2023-05-28T02:48:27;65384.94;;;14.92;100.00
48624;BME280;34422;45.802;16.114;2023-05-28T02:50:54;65383.31;;;14.91;100.00
48624;BME280;34422;45.802;16.114;2023-05-28T02:53:21;65380.09;;;14.90;100.00
48624;BME280;34422;45.802;16.114;2023-05-28T02:55:49;65379.56;;;14.87;100.00
48624;BME280;34422;45.802;16.114;2023-05-28T02:58:16;65373.06;;;14.84;100.00
48624;BME280;34422;45.802;16.114;2023-05-28T03:00:42;65371.44;;;14.82;100.00
48624;BME280;34422;45.802;16.114;2023-05-28T03:03:09;65369.28;;;14.83;100.00
48624;BME280;34422;45.802;16.114;2023-05-28T03:05:36;65363.34;;;14.77;100.00
48624;BME280;34422;45.802;16.114;2023-05-28T03:08:03;65361.19;;;14.75;100.00
48624;BME280;34422;45.802;16.114;2023-05-28T03:10:30;65356.84;;;14.69;100.00
48624;BME280;34422;45.802;16.114;2023-05-28T03:12:57;65347.66;;;14.63;100.00
48624;BME280;34422;45.802;16.114;2023-05-28T03:15:24;65347.13;;;14.54;100.00
48624;BME280;34422;45.802;16.114;2023-05-28T03:17:54;65344.97;;;14.52;100.00
48624;BME280;34422;45.802;16.114;2023-05-28T03:20:20;65338.50;;;14.51;100.00
48624;BME280;34422;45.802;16.114;2023-05-28T03:22:48;65332.00;;;14.50;100.00
48624;BME280;34422;45.802;16.114;2023-05-28T03:25:15;65341.72;;;14.54;100.00
48624;BME280;34422;45.802;16.114;2023-05-28T03:27:42;65330.94;;;14.49;100.00
48624;BME280;34422;45.802;16.114;2023-05-28T03:30:09;65334.72;;;14.50;100.00
48624;BME280;34422;45.802;16.114;2023-05-28T03:32:36;65338.50;;;14.51;100.00
48624;BME280;34422;45.802;16.114;2023-05-28T03:35:03;65347.66;;;14.55;100.00
48624;BME280;34422;45.802;16.114;2023-05-28T03:37:30;65343.91;;;14.56;100.00
48624;BME280;34422;45.802;16.114;2023-05-28T03:39:57;65340.66;;;14.58;100.00
48624;BME280;34422;45.802;16.114;2023-05-28T03:42:24;65340.66;;;14.58;100.00
48624;BME280;34422;45.802;16.114;2023-05-28T03:44:51;65353.09;;;14.60;100.00
48624;BME280;34422;45.802;16.114;2023-05-28T03:47:18;65345.50;;;14.53;100.00
48624;BME280;34422;45.802;16.114;2023-05-28T03:49:44;65346.59;;;14.62;100.00
48624;BME280;34422;45.802;16.114;2023-05-28T03:52:11;65342.28;;;14.57;100.00
48624;BME280;34422;45.802;16.114;2023-05-28T03:54:38;65347.13;;;14.65;100.00
48624;BME280;34422;45.802;16.114;2023-05-28T03:57:05;65359.03;;;14.71;100.00
48624;BME280;34422;45.802;16.114;2023-05-28T03:59:32;65360.66;;;14.75;100.00
48624;BME280;34422;45.802;16.114;2023-05-28T04:01:59;65361.19;;;14.78;100.00
48624;BME280;34422;45.802;16.114;2023-05-28T04:04:25;65374.69;;;14.88;100.00
48624;BME280;34422;45.802;16.114;2023-05-28T04:06:52;65385.50;;;14.96;100.00
48624;BME280;34422;45.802;16.114;2023-05-28T04:09:19;65384.94;;;14.95;100.00
48624;BME280;34422;45.802;16.114;2023-05-28T04:11:46;65374.16;;;14.85;100.00
48624;BME280;34422;45.802;16.114;2023-05-28T04:14:13;65391.44;;;15.01;100.00
48624;BME280;34422;45.802;16.114;2023-05-28T04:16:40;65402.78;;;15.09;100.00
48624;BME280;34422;45.802;16.114;2023-05-28T04:19:07;65405.50;;;15.14;100.00
48624;BME280;34422;45.802;16.114;2023-05-28T04:21:34;65415.75;;;15.24;100.00
48624;BME280;34422;45.802;16.114;2023-05-28T04:24:01;65433.06;;;15.38;100.00
48624;BME280;34422;45.802;16.114;2023-05-28T04:26:28;65445.50;;;15.52;100.00
48624;BME280;34422;45.802;16.114;2023-05-28T04:28:56;65454.16;;;15.62;100.00
48624;BME280;34422;45.802;16.114;2023-05-28T04:31:23;65474.72;;;15.79;98.44
48624;BME280;34422;45.802;16.114;2023-05-28T04:33:53;65476.88;;;15.81;96.59
48624;BME280;34422;45.802;16.114;2023-05-28T04:36:20;65493.09;;;15.96;93.97
48624;BME280;34422;45.802;16.114;2023-05-28T04:38:47;65489.84;;;15.93;93.42
48624;BME280;34422;45.802;16.114;2023-05-28T04:41:14;65498.50;;;15.96;92.07
48624;BME280;34422;45.802;16.114;2023-05-28T04:43:41;65505.53;;;16.11;90.42
48624;BME280;34422;45.802;16.114;2023-05-28T04:46:08;65525.53;;;16.27;90.67
48624;BME280;34422;45.802;16.114;2023-05-28T04:48:38;65547.19;;;16.52;89.77
48624;BME280;34422;45.802;16.114;2023-05-28T04:51:05;65569.91;;;16.74;87.78
48624;BME280;34422;45.802;16.114;2023-05-28T04:53:34;65585.63;;;16.83;85.81
48624;BME280;34422;45.802;16.114;2023-05-28T04:56:01;65608.34;;;17.10;81.49
48624;BME280;34422;45.802;16.114;2023-05-28T04:58:30;65663.56;;;17.56;79.35
48624;BME280;34422;45.802;16.114;2023-05-28T05:00:57;65716.66;;;18.08;77.66
48624;BME280;34422;45.802;16.114;2023-05-28T05:03:24;65744.28;;;18.32;70.54
48624;BME280;34422;45.802;16.114;2023-05-28T05:05:50;65780.59;;;18.73;66.32
48624;BME280;34422;45.802;16.114;2023-05-28T05:08:17;65841.88;;;19.28;63.38
48624;BME280;34422;45.802;16.114;2023-05-28T05:10:44;65874.44;;;19.59;60.58
48624;BME280;34422;45.802;16.114;2023-05-28T05:13:11;65895.59;;;19.78;58.88
48624;BME280;34422;45.802;16.114;2023-05-28T05:15:38;65943.31;;;20.23;55.97
48624;BME280;34422;45.802;16.114;2023-05-28T05:18:04;65949.81;;;20.32;55.59
48624;BME280;34422;45.802;16.114;2023-05-28T05:20:31;66003.56;;;20.79;53.71
48624;BME280;34422;45.802;16.114;2023-05-28T05:22:58;65933.00;;;20.13;62.32
48624;BME280;34422;45.802;16.114;2023-05-28T05:25:25;66010.66;;;20.83;60.21
48624;BME280;34422;45.802;16.114;2023-05-28T05:27:52;66005.75;;;20.81;57.04
48624;BME280;34422;45.802;16.114;2023-05-28T05:30:18;66048.13;;;21.21;54.80
48624;BME280;34422;45.802;16.114;2023-05-28T05:32:46;66061.13;;;21.38;52.08
48624;BME280;34422;45.802;16.114;2023-05-28T05:35:13;66046.47;;;21.19;54.30
48624;BME280;34422;45.802;16.114;2023-05-28T05:37:41;66107.91;;;21.72;52.06
48624;BME280;34422;45.802;16.114;2023-05-28T05:40:08;66091.00;;;21.63;49.75
48624;BME280;34422;45.802;16.114;2023-05-28T05:42:36;66048.09;;;21.18;51.00
48624;BME280;34422;45.802;16.114;2023-05-28T05:45:04;66059.00;;;21.31;50.28
48624;BME280;34422;45.802;16.114;2023-05-28T05:47:31;66038.31;;;21.17;49.30
48624;BME280;34422;45.802;16.114;2023-05-28T05:49:58;66022.03;;;20.97;51.82
48624;BME280;34422;45.802;16.114;2023-05-28T05:52:26;66042.13;;;21.20;50.16
48624;BME280;34422;45.802;16.114;2023-05-28T05:54:53;66094.81;;;21.67;49.63
48624;BME280;34422;45.802;16.114;2023-05-28T05:57:20;66102.41;;;21.74;48.35
48624;BME280;34422;45.802;16.114;2023-05-28T05:59:46;66117.66;;;21.86;48.53
48624;BME280;34422;45.802;16.114;2023-05-28T06:02:13;66132.88;;;21.95;49.63
48624;BME280;34422;45.802;16.114;2023-05-28T06:04:40;66110.03;;;21.79;48.45
48624;BME280;34422;45.802;16.114;2023-05-28T06:07:07;66156.28;;;22.17;47.98
48624;BME280;34422;45.802;16.114;2023-05-28T06:09:34;66130.16;;;21.97;47.98
48624;BME280;34422;45.802;16.114;2023-05-28T06:12:01;66115.47;;;21.84;48.08
48624;BME280;34422;45.802;16.114;2023-05-28T06:14:28;66096.44;;;21.69;48.13
48624;BME280;34422;45.802;16.114;2023-05-28T06:16:55;66057.34;;;21.30;48.35
48624;BME280;34422;45.802;16.114;2023-05-28T06:19:22;66093.19;;;21.66;49.06
48624;BME280;34422;45.802;16.114;2023-05-28T06:21:49;66172.56;;;22.34;47.83
48624;BME280;34422;45.802;16.114;2023-05-28T06:24:17;66159.53;;;22.22;46.65
48624;BME280;34422;45.802;16.114;2023-05-28T06:26:43;66136.13;;;22.03;48.00
48624;BME280;34422;45.802;16.114;2023-05-28T06:29:10;66156.25;;;22.22;47.55
48624;BME280;34422;45.802;16.114;2023-05-28T06:31:37;66174.19;;;22.36;47.59
48624;BME280;34422;45.802;16.114;2023-05-28T06:34:04;66167.66;;;22.32;47.36
48624;BME280;34422;45.802;16.114;2023-05-28T06:36:31;66171.44;;;22.39;47.93
48624;BME280;34422;45.802;16.114;2023-05-28T06:38:58;66210.59;;;22.70;46.52
48624;BME280;34422;45.802;16.114;2023-05-28T06:41:25;66223.66;;;22.85;46.49
48624;BME280;34422;45.802;16.114;2023-05-28T06:43:52;66218.72;;;22.85;47.48
48624;BME280;34422;45.802;16.114;2023-05-28T06:46:19;66224.75;;;22.83;46.76
48624;BME280;34422;45.802;16.114;2023-05-28T06:48:47;66185.06;;;22.49;48.35
48624;BME280;34422;45.802;16.114;2023-05-28T06:51:14;66213.31;;;22.75;46.79
48624;BME280;34422;45.802;16.114;2023-05-28T06:53:41;66246.50;;;23.09;46.78
48624;BME280;34422;45.802;16.114;2023-05-28T06:56:08;66303.66;;;23.54;46.62
48624;BME280;34422;45.802;16.114;2023-05-28T06:58:35;66315.03;;;23.72;45.34
48624;BME280;34422;45.802;16.114;2023-05-28T07:01:02;66421.75;;;24.67;42.98
48624;BME280;34422;45.802;16.114;2023-05-28T07:03:29;66411.97;;;24.58;42.24
48624;BME280;34422;45.802;16.114;2023-05-28T07:05:56;66397.78;;;24.47;43.08
48624;BME280;34422;45.802;16.114;2023-05-28T07:08:23;66530.16;;;25.70;41.20
48624;BME280;34422;45.802;16.114;2023-05-28T07:10:50;66560.09;;;26.01;39.43
48624;BME280;34422;45.802;16.114;2023-05-28T07:13:17;66571.59;;;26.09;39.94
48624;BME280;34422;45.802;16.114;2023-05-28T07:15:44;66596.66;;;26.32;38.76
48624;BME280;34422;45.802;16.114;2023-05-28T07:18:11;66536.16;;;25.76;41.41
48624;BME280;34422;45.802;16.114;2023-05-28T07:20:38;66484.94;;;25.28;41.92
48624;BME280;34422;45.802;16.114;2023-05-28T07:23:05;66469.16;;;25.13;43.82
48624;BME280;34422;45.802;16.114;2023-05-28T07:25:33;66462.59;;;25.07;43.33
48624;BME280;34422;45.802;16.114;2023-05-28T07:27:59;66528.53;;;25.69;41.01
48624;BME280;34422;45.802;16.114;2023-05-28T07:30:26;66574.91;;;26.07;41.25
48624;BME280;34422;45.802;16.114;2023-05-28T07:32:53;66498.56;;;25.41;42.25
48624;BME280;34422;45.802;16.114;2023-05-28T07:35:20;66563.38;;;26.04;42.09
48624;BME280;34422;45.802;16.114;2023-05-28T07:37:47;66584.59;;;26.26;41.60
48624;BME280;34422;45.802;16.114;2023-05-28T07:40:13;66593.91;;;26.35;41.21
48624;BME280;34422;45.802;16.114;2023-05-28T07:42:41;66624.97;;;26.64;40.47
48624;BME280;34422;45.802;16.114;2023-05-28T07:45:08;66480.56;;;25.24;43.00
48624;BME280;34422;45.802;16.114;2023-05-28T07:47:35;66572.13;;;26.09;41.93
48624;BME280;34422;45.802;16.114;2023-05-28T07:50:03;66583.56;;;26.20;40.62
48624;BME280;34422;45.802;16.114;2023-05-28T07:52:33;66553.59;;;25.92;41.58
48624;BME280;34422;45.802;16.114;2023-05-28T07:55:00;66549.22;;;25.88;41.36
48624;BME280;34422;45.802;16.114;2023-05-28T07:57:26;66629.38;;;26.63;39.72
48624;BME280;34422;45.802;16.114;2023-05-28T07:59:53;66515.44;;;25.57;42.56
48624;BME280;34422;45.802;16.114;2023-05-28T08:02:20;66626.59;;;26.65;40.39
48624;BME280;34422;45.802;16.114;2023-05-28T08:04:48;66632.13;;;26.63;40.18
48624;BME280;34422;45.802;16.114;2023-05-28T08:07:15;66644.06;;;26.79;39.48
48624;BME280;34422;45.802;16.114;2023-05-28T08:09:42;66541.56;;;25.83;42.48
48624;BME280;34422;45.802;16.114;2023-05-28T08:12:10;66614.06;;;26.53;41.21
48624;BME280;34422;45.802;16.114;2023-05-28T08:14:37;66566.13;;;26.04;41.72
48624;BME280;34422;45.802;16.114;2023-05-28T08:17:03;66569.41;;;26.07;41.84
48624;BME280;34422;45.802;16.114;2023-05-28T08:19:30;66515.97;;;25.57;41.97
48624;BME280;34422;45.802;16.114;2023-05-28T08:21:57;66559.56;;;26.00;41.86
48624;BME280;34422;45.802;16.114;2023-05-28T08:24:24;66693.75;;;27.20;41.01
48624;BME280;34422;45.802;16.114;2023-05-28T08:26:51;66650.16;;;26.77;40.74
48624;BME280;34422;45.802;16.114;2023-05-28T08:29:18;66640.22;;;26.78;40.30
48624;BME280;34422;45.802;16.114;2023-05-28T08:31:44;66653.38;;;26.85;40.24
48624;BME280;34422;45.802;16.114;2023-05-28T08:34:11;66596.13;;;26.32;43.28
48624;BME280;34422;45.802;16.114;2023-05-28T08:36:41;66644.66;;;26.74;40.63
48624;BME280;34422;45.802;16.114;2023-05-28T08:39:08;66506.16;;;25.48;43.99
48624;BME280;34422;45.802;16.114;2023-05-28T08:41:37;66639.72;;;26.75;41.94
48624;BME280;34422;45.802;16.114;2023-05-28T08:44:04;66617.84;;;26.60;41.22
48624;BME280;34422;45.802;16.114;2023-05-28T08:46:31;66615.13;;;26.54;41.74
48624;BME280;34422;45.802;16.114;2023-05-28T08:48:59;66651.19;;;26.83;40.91
48624;BME280;34422;45.802;16.114;2023-05-28T08:51:27;66636.44;;;26.72;42.53
48624;BME280;34422;45.802;16.114;2023-05-28T08:53:56;66700.22;;;27.34;41.66
48624;BME280;34422;45.802;16.114;2023-05-28T08:56:23;66695.41;;;27.21;39.49
48624;BME280;34422;45.802;16.114;2023-05-28T08:58:50;66668.09;;;27.01;41.16
48624;BME280;34422;45.802;16.114;2023-05-28T09:01:17;66553.03;;;25.94;43.57
48624;BME280;34422;45.802;16.114;2023-05-28T09:03:45;66643.50;;;26.81;42.11
48624;BME280;34422;45.802;16.114;2023-05-28T09:06:12;66672.94;;;27.08;42.61
48624;BME280;34422;45.802;16.114;2023-05-28T09:08:39;66555.72;;;25.99;43.96
48624;BME280;34422;45.802;16.114;2023-05-28T09:11:11;66651.16;;;26.85;42.19
48624;BME280;34422;45.802;16.114;2023-05-28T09:13:42;66579.19;;;26.16;42.10
48624;BME280;34422;45.802;16.114;2023-05-28T09:16:10;66602.13;;;26.37;43.51
48624;BME280;34422;45.802;16.114;2023-05-28T09:18:37;66582.97;;;26.25;43.11
48624;BME280;34422;45.802;16.114;2023-05-28T09:21:07;66453.91;;;24.99;45.25
48624;BME280;34422;45.802;16.114;2023-05-28T09:23:38;66512.19;;;25.51;47.70
48624;BME280;34422;45.802;16.114;2023-05-28T09:26:09;66529.59;;;25.72;46.37
48624;BME280;34422;45.802;16.114;2023-05-28T09:28:39;66536.63;;;25.84;45.76
48624;BME280;34422;45.802;16.114;2023-05-28T09:31:07;66466.34;;;25.16;47.03
48624;BME280;34422;45.802;16.114;2023-05-28T09:33:34;66450.09;;;24.91;46.93
48624;BME280;34422;45.802;16.114;2023-05-28T09:36:02;66465.31;;;25.10;46.66
48624;BME280;34422;45.802;16.114;2023-05-28T09:38:39;66442.97;;;24.89;47.44
48624;BME280;34422;45.802;16.114;2023-05-28T09:41:23;66476.72;;;25.26;47.89
48624;BME280;34422;45.802;16.114;2023-05-28T09:46:32;66533.94;;;25.76;46.46
48624;BME280;34422;45.802;16.114;2023-05-28T09:49:00;66505.03;;;25.52;48.18
48624;BME280;34422;45.802;16.114;2023-05-28T09:51:29;66517.06;;;25.58;48.25
48624;BME280;34422;45.802;16.114;2023-05-28T09:54:03;66521.97;;;25.65;47.26
48624;BME280;34422;45.802;16.114;2023-05-28T09:56:33;66455.53;;;24.98;47.15
48624;BME280;34422;45.802;16.114;2023-05-28T09:59:01;66509.97;;;25.54;47.25
48624;BME280;34422;45.802;16.114;2023-05-28T10:01:38;66423.38;;;24.71;49.08
48624;BME280;34422;45.802;16.114;2023-05-28T10:04:11;66476.72;;;25.26;48.57
48624;BME280;34422;45.802;16.114;2023-05-28T10:06:43;66485.47;;;25.29;47.58
48624;BME280;34422;45.802;16.114;2023-05-28T10:09:14;66471.84;;;25.19;47.97
48624;BME280;34422;45.802;16.114;2023-05-28T10:11:54;66505.06;;;25.47;48.11
48624;BME280;34422;45.802;16.114;2023-05-28T10:14:22;66508.34;;;25.50;47.43
48624;BME280;34422;45.802;16.114;2023-05-28T10:16:50;66535.56;;;25.80;47.54
48624;BME280;34422;45.802;16.114;2023-05-28T10:19:17;66499.03;;;25.46;46.58
48624;BME280;34422;45.802;16.114;2023-05-28T10:21:44;66522.53;;;25.63;46.40
48624;BME280;34422;45.802;16.114;2023-05-28T10:24:12;66538.88;;;25.78;47.04
48624;BME280;34422;45.802;16.114;2023-05-28T10:26:39;66518.22;;;25.54;47.66
48624;BME280;34422;45.802;16.114;2023-05-28T10:29:06;66537.25;;;25.77;47.68
48624;BME280;34422;45.802;16.114;2023-05-28T10:31:36;66536.13;;;25.81;48.31
48624;BME280;34422;45.802;16.114;2023-05-28T10:34:15;66489.25;;;25.35;48.87
48624;BME280;34422;45.802;16.114;2023-05-28T10:36:49;66531.19;;;25.76;47.04
48624;BME280;34422;45.802;16.114;2023-05-28T10:39:17;66444.03;;;24.95;47.29
48624;BME280;34422;45.802;16.114;2023-05-28T10:41:44;66501.78;;;25.46;46.53
48624;BME280;34422;45.802;16.114;2023-05-28T10:44:11;66537.22;;;25.79;46.43
48624;BME280;34422;45.802;16.114;2023-05-28T10:46:39;66502.91;;;25.45;46.49
48624;BME280;34422;45.802;16.114;2023-05-28T10:49:16;66513.81;;;25.55;46.47
48624;BME280;34422;45.802;16.114;2023-05-28T10:52:18;66481.13;;;25.25;46.66
48624;BME280;34422;45.802;16.114;2023-05-28T10:54:41;66519.78;;;25.66;45.48
48624;BME280;34422;45.802;16.114;2023-05-28T10:57:08;66512.16;;;25.54;47.05
48624;BME280;34422;45.802;16.114;2023-05-28T11:02:08;66508.91;;;25.48;46.24
48624;BME280;34422;45.802;16.114;2023-05-28T11:04:35;66489.81;;;25.33;44.69
48624;BME280;34422;45.802;16.114;2023-05-28T11:07:04;66501.81;;;25.44;46.11
48624;BME280;34422;45.802;16.114;2023-05-28T11:09:32;66500.22;;;25.40;46.69
48624;BME280;34422;45.802;16.114;2023-05-28T11:12:00;66536.13;;;25.78;46.34
48624;BME280;34422;45.802;16.114;2023-05-28T11:14:38;66528.00;;;25.68;47.80
48624;BME280;34422;45.802;16.114;2023-05-28T11:17:06;66510.00;;;25.52;46.60
48624;BME280;34422;45.802;16.114;2023-05-28T11:19:41;66514.88;;;25.56;46.44
48624;BME280;34422;45.802;16.114;2023-05-28T11:22:09;66513.22;;;25.57;46.20
48624;BME280;34422;45.802;16.114;2023-05-28T11:24:53;66497.94;;;25.45;46.87
48624;BME280;34422;45.802;16.114;2023-05-28T11:27:22;66492.53;;;25.38;45.87
48624;BME280;34422;45.802;16.114;2023-05-28T11:29:51;66497.47;;;25.40;47.30
48624;BME280;34422;45.802;16.114;2023-05-28T11:32:18;66519.31;;;25.55;48.26
48624;BME280;34422;45.802;16.114;2023-05-28T11:34:50;66507.25;;;25.49;47.25
48624;BME280;34422;45.802;16.114;2023-05-28T11:37:27;66535.59;;;25.75;46.83
48624;BME280;34422;45.802;16.114;2023-05-28T11:39:56;66547.56;;;25.92;45.78
48624;BME280;34422;45.802;16.114;2023-05-28T11:42:24;66557.34;;;26.01;45.86
48624;BME280;34422;45.802;16.114;2023-05-28T11:44:51;66544.31;;;25.83;45.00
48624;BME280;34422;45.802;16.114;2023-05-28T11:47:19;66469.16;;;25.13;46.93
48624;BME280;34422;45.802;16.114;2023-05-28T11:49:47;66482.22;;;25.26;47.97
48624;BME280;34422;45.802;16.114;2023-05-28T11:52:22;66472.44;;;25.14;48.18
48624;BME280;34422;45.802;16.114;2023-05-28T11:54:54;66446.22;;;24.97;49.03
48624;BME280;34422;45.802;16.114;2023-05-28T11:57:27;66449.53;;;24.95;48.42
48624;BME280;34422;45.802;16.114;2023-05-28T12:00:09;66506.16;;;25.48;47.83
48624;BME280;34422;45.802;16.114;2023-05-28T12:05:10;66494.19;;;25.37;46.43
48624;BME280;34422;45.802;16.114;2023-05-28T12:10:17;66457.66;;;25.05;49.31
48624;BME280;34422;45.802;16.114;2023-05-28T12:12:50;66460.41;;;25.05;50.44
48624;BME280;34422;45.802;16.114;2023-05-28T12:15:21;66463.13;;;25.10;50.16
48624;BME280;34422;45.802;16.114;2023-05-28T12:17:54;66494.16;;;25.42;50.07
48624;BME280;34422;45.802;16.114;2023-05-28T12:23:03;66534.47;;;25.79;48.12
48624;BME280;34422;45.802;16.114;2023-05-28T12:28:15;66517.59;;;25.61;48.37
48624;BME280;34422;45.802;16.114;2023-05-28T12:30:42;66499.13;;;25.39;50.67
48624;BME280;34422;45.802;16.114;2023-05-28T12:33:10;66472.34;;;25.22;50.31
48624;BME280;34422;45.802;16.114;2023-05-28T12:35:37;66517.06;;;25.58;49.00
48624;BME280;34422;45.802;16.114;2023-05-28T12:38:04;66494.19;;;25.37;47.56
48624;BME280;34422;45.802;16.114;2023-05-28T12:40:31;66516.50;;;25.58;49.75
48624;BME280;34422;45.802;16.114;2023-05-28T12:42:58;66531.75;;;25.77;49.06
48624;BME280;34422;45.802;16.114;2023-05-28T12:45:25;66539.91;;;25.84;46.95
48624;BME280;34422;45.802;16.114;2023-05-28T12:47:52;66538.88;;;25.78;45.94
48624;BME280;34422;45.802;16.114;2023-05-28T12:50:20;66542.16;;;25.81;47.16
48624;BME280;34422;45.802;16.114;2023-05-28T12:52:46;66535.59;;;25.75;47.05
48624;BME280;34422;45.802;16.114;2023-05-28T12:55:13;66556.25;;;26.00;46.22
48624;BME280;34422;45.802;16.114;2023-05-28T12:57:40;66583.00;;;26.22;45.52
48624;BME280;34422;45.802;16.114;2023-05-28T13:00:07;66581.94;;;26.18;45.47
48624;BME280;34422;45.802;16.114;2023-05-28T13:02:38;66586.84;;;26.23;44.98
48624;BME280;34422;45.802;16.114;2023-05-28T13:05:05;66573.16;;;26.15;44.91
48624;BME280;34422;45.802;16.114;2023-05-28T13:07:33;66539.91;;;25.84;44.09